sensor_id;sensor_type;location;lat;lon;timestamp;pressure;altitude;pressure_sealevel;temperature;humidity
65131;BME280;51709;54.912;8.316;2023-11-21T00:01:18;101098.44;;;8.65;94.93
65131;BME280;51709;54.912;8.316;2023-11-21T00:06:39;101107.97;;;8.69;94.88
65131;BME280;51709;54.912;8.316;2023-11-21T00:12:01;101114.41;;;8.68;94.83
65131;BME280;51709;54.912;8.316;2023-11-21T00:17:22;101119.53;;;8.71;94.72
65131;BME280;51709;54.912;8.316;2023-11-21T00:22:43;101127.66;;;8.71;94.54
65131;BME280;51709;54.912;8.316;2023-11-21T00:28:04;101126.09;;;8.69;94.55
65131;BME280;51709;54.912;8.316;2023-11-21T00:33:26;101136.78;;;8.70;94.73
65131;BME280;51709;54.912;8.316;2023-11-21T00:38:47;101145.47;;;8.74;94.93
65131;BME280;51709;54.912;8.316;2023-11-21T00:44:08;101160.19;;;8.81;94.63
65131;BME280;51709;54.912;8.316;2023-11-21T00:49:29;101167.16;;;8.83;94.39
65131;BME280;51709;54.912;8.316;2023-11-21T00:54:49;101177.00;;;8.84;94.17
65131;BME280;51709;54.912;8.316;2023-11-21T01:00:10;101185.84;;;8.86;94.15
65131;BME280;51709;54.912;8.316;2023-11-21T01:05:35;101184.28;;;8.84;94.06
65131;BME280;51709;54.912;8.316;2023-11-21T01:10:55;101188.97;;;8.82;94.03
65131;BME280;51709;54.912;8.316;2023-11-21T01:16:16;101209.53;;;8.84;94.32
65131;BME280;51709;54.912;8.316;2023-11-21T01:21:36;101211.66;;;8.81;94.29
65131;BME280;51709;54.912;8.316;2023-11-21T01:26:57;101231.47;;;8.81;94.09
65131;BME280;51709;54.912;8.316;2023-11-21T01:32:36;101234.31;;;8.80;94.05
65131;BME280;51709;54.912;8.316;2023-11-21T01:38:16;101242.00;;;8.75;94.10
65131;BME280;51709;54.912;8.316;2023-11-21T01:43:56;101246.09;;;8.69;94.06
65131;BME280;51709;54.912;8.316;2023-11-21T01:49:36;101252.25;;;8.71;94.15
65131;BME280;51709;54.912;8.316;2023-11-21T01:55:18;101258.53;;;8.72;93.97
65131;BME280;51709;54.912;8.316;2023-11-21T02:01:06;101267.63;;;8.71;93.80
65131;BME280;51709;54.912;8.316;2023-11-21T02:06:45;101277.34;;;8.73;94.08
65131;BME280;51709;54.912;8.316;2023-11-21T02:12:25;101288.19;;;8.73;93.85
65131;BME280;51709;54.912;8.316;2023-11-21T02:18:05;101295.31;;;8.74;93.77
65131;BME280;51709;54.912;8.316;2023-11-21T02:23:45;101301.34;;;8.78;93.97
65131;BME280;51709;54.912;8.316;2023-11-21T02:29:07;101321.84;;;8.80;93.85
65131;BME280;51709;54.912;8.316;2023-11-21T02:34:31;101342.66;;;8.80;93.63
65131;BME280;51709;54.912;8.316;2023-11-21T02:39:52;101339.84;;;8.81;93.73
65131;BME280;51709;54.912;8.316;2023-11-21T02:45:14;101332.97;;;8.77;93.63
65131;BME280;51709;54.912;8.316;2023-11-21T02:50:37;101337.94;;;8.72;93.60
65131;BME280;51709;54.912;8.316;2023-11-21T02:55:58;101338.91;;;8.71;93.52
65131;BME280;51709;54.912;8.316;2023-11-21T03:01:19;101349.03;;;8.69;93.61
65131;BME280;51709;54.912;8.316;2023-11-21T03:06:40;101352.75;;;8.68;93.45
65131;BME280;51709;54.912;8.316;2023-11-21T03:12:01;101361.72;;;8.69;93.69
65131;BME280;51709;54.912;8.316;2023-11-21T03:17:22;101376.09;;;8.69;93.50
65131;BME280;51709;54.912;8.316;2023-11-21T03:22:42;101380.78;;;8.67;93.34
65131;BME280;51709;54.912;8.316;2023-11-21T03:28:03;101390.22;;;8.63;93.36
65131;BME280;51709;54.912;8.316;2023-11-21T03:33:24;101391.91;;;8.64;93.39
65131;BME280;51709;54.912;8.316;2023-11-21T03:38:45;101393.66;;;8.65;93.45
65131;BME280;51709;54.912;8.316;2023-11-21T03:44:06;101401.03;;;8.63;93.56
65131;BME280;51709;54.912;8.316;2023-11-21T03:49:26;101407.28;;;8.64;93.35
65131;BME280;51709;54.912;8.316;2023-11-21T03:54:47;101394.88;;;8.61;93.48
65131;BME280;51709;54.912;8.316;2023-11-21T04:00:08;101411.13;;;8.61;93.33
65131;BME280;51709;54.912;8.316;2023-11-21T04:05:33;101412.13;;;8.60;93.45
65131;BME280;51709;54.912;8.316;2023-11-21T04:10:53;101424.47;;;8.53;93.40
65131;BME280;51709;54.912;8.316;2023-11-21T04:16:15;101426.34;;;8.53;93.48
65131;BME280;51709;54.912;8.316;2023-11-21T04:21:37;101426.56;;;8.50;93.27
65131;BME280;51709;54.912;8.316;2023-11-21T04:26:58;101452.78;;;8.49;93.13
65131;BME280;51709;54.912;8.316;2023-11-21T04:32:18;101459.22;;;8.48;93.23
65131;BME280;51709;54.912;8.316;2023-11-21T04:37:39;101474.59;;;8.48;93.23
65131;BME280;51709;54.912;8.316;2023-11-21T04:43:00;101497.25;;;8.47;93.21
65131;BME280;51709;54.912;8.316;2023-11-21T04:48:22;101497.38;;;8.45;93.28
65131;BME280;51709;54.912;8.316;2023-11-21T04:53:42;101512.03;;;8.42;93.19
65131;BME280;51709;54.912;8.316;2023-11-21T04:59:03;101528.66;;;8.38;93.25
65131;BME280;51709;54.912;8.316;2023-11-21T05:04:25;101528.78;;;8.36;93.17
65131;BME280;51709;54.912;8.316;2023-11-21T05:09:45;101542.44;;;8.35;93.40
65131;BME280;51709;54.912;8.316;2023-11-21T05:15:07;101546.16;;;8.34;93.19
65131;BME280;51709;54.912;8.316;2023-11-21T05:20:31;101579.88;;;8.30;93.28
65131;BME280;51709;54.912;8.316;2023-11-21T05:25:51;101567.44;;;8.27;93.26
65131;BME280;51709;54.912;8.316;2023-11-21T05:31:12;101573.84;;;8.26;93.15
65131;BME280;51709;54.912;8.316;2023-11-21T05:36:36;101584.81;;;8.25;93.33
65131;BME280;51709;54.912;8.316;2023-11-21T05:41:57;101597.69;;;8.21;93.41
65131;BME280;51709;54.912;8.316;2023-11-21T05:47:18;101609.50;;;8.20;93.23
65131;BME280;51709;54.912;8.316;2023-11-21T05:52:39;101621.19;;;8.21;93.04
65131;BME280;51709;54.912;8.316;2023-11-21T05:58:00;101625.03;;;8.18;93.26
65131;BME280;51709;54.912;8.316;2023-11-21T06:03:21;101635.19;;;8.15;93.12
65131;BME280;51709;54.912;8.316;2023-11-21T06:08:43;101636.34;;;8.12;93.18
65131;BME280;51709;54.912;8.316;2023-11-21T06:14:04;101641.13;;;8.09;93.33
65131;BME280;51709;54.912;8.316;2023-11-21T06:19:28;101657.63;;;8.06;93.47
65131;BME280;51709;54.912;8.316;2023-11-21T06:24:49;101656.00;;;8.03;93.43
65131;BME280;51709;54.912;8.316;2023-11-21T06:30:10;101680.38;;;8.03;93.32
65131;BME280;51709;54.912;8.316;2023-11-21T06:35:32;101700.41;;;8.01;93.20
65131;BME280;51709;54.912;8.316;2023-11-21T06:40:56;101708.50;;;8.01;93.32
65131;BME280;51709;54.912;8.316;2023-11-21T06:46:17;101722.16;;;7.99;93.33
65131;BME280;51709;54.912;8.316;2023-11-21T06:51:37;101733.13;;;7.98;93.35
65131;BME280;51709;54.912;8.316;2023-11-21T06:56:58;101741.38;;;7.96;93.03
65131;BME280;51709;54.912;8.316;2023-11-21T07:02:19;101749.59;;;7.95;93.04
65131;BME280;51709;54.912;8.316;2023-11-21T07:07:39;101759.56;;;7.94;93.06
65131;BME280;51709;54.912;8.316;2023-11-21T07:13:00;101767.91;;;7.91;93.53
65131;BME280;51709;54.912;8.316;2023-11-21T07:18:21;101773.22;;;7.93;93.29
65131;BME280;51709;54.912;8.316;2023-11-21T07:23:41;101782.91;;;7.95;93.33
65131;BME280;51709;54.912;8.316;2023-11-21T07:29:02;101798.06;;;7.98;93.27
65131;BME280;51709;54.912;8.316;2023-11-21T07:34:23;101801.50;;;8.00;93.06
65131;BME280;51709;54.912;8.316;2023-11-21T07:39:44;101804.97;;;8.02;93.02
65131;BME280;51709;54.912;8.316;2023-11-21T07:45:05;101794.88;;;8.04;93.12
65131;BME280;51709;54.912;8.316;2023-11-21T07:50:27;101812.59;;;8.08;92.86
65131;BME280;51709;54.912;8.316;2023-11-21T07:55:47;101828.72;;;8.09;92.84
65131;BME280;51709;54.912;8.316;2023-11-21T08:01:08;101841.16;;;8.12;92.77
65131;BME280;51709;54.912;8.316;2023-11-21T08:06:30;101850.75;;;8.16;92.80
65131;BME280;51709;54.912;8.316;2023-11-21T08:11:51;101858.41;;;8.22;92.73
65131;BME280;51709;54.912;8.316;2023-11-21T08:17:13;101858.94;;;8.27;92.59
65131;BME280;51709;54.912;8.316;2023-11-21T08:22:36;101865.63;;;8.34;92.43
65131;BME280;51709;54.912;8.316;2023-11-21T08:27:57;101891.97;;;8.43;92.21
65131;BME280;51709;54.912;8.316;2023-11-21T08:33:18;101893.59;;;8.57;92.01
65131;BME280;51709;54.912;8.316;2023-11-21T08:38:38;101892.03;;;8.65;91.78
65131;BME280;51709;54.912;8.316;2023-11-21T08:43:59;101918.41;;;8.74;91.79
65131;BME280;51709;54.912;8.316;2023-11-21T08:49:19;101909.66;;;8.82;91.69
65131;BME280;51709;54.912;8.316;2023-11-21T08:54:40;101923.31;;;8.80;91.82
65131;BME280;51709;54.912;8.316;2023-11-21T09:00:08;101927.28;;;8.87;91.61
65131;BME280;51709;54.912;8.316;2023-11-21T09:05:32;101930.25;;;8.95;91.75
65131;BME280;51709;54.912;8.316;2023-11-21T09:10:53;101937.75;;;9.14;91.35
65131;BME280;51709;54.912;8.316;2023-11-21T09:16:14;101942.59;;;9.32;91.00
65131;BME280;51709;54.912;8.316;2023-11-21T09:21:36;101947.72;;;9.80;90.21
65131;BME280;51709;54.912;8.316;2023-11-21T09:26:56;101963.25;;;10.11;89.44
65131;BME280;51709;54.912;8.316;2023-11-21T09:32:17;101963.53;;;10.28;89.52
65131;BME280;51709;54.912;8.316;2023-11-21T09:37:39;101962.19;;;10.23;89.29
65131;BME280;51709;54.912;8.316;2023-11-21T09:43:01;101965.81;;;10.12;89.74
65131;BME280;51709;54.912;8.316;2023-11-21T09:48:29;101981.97;;;10.14;89.67
65131;BME280;51709;54.912;8.316;2023-11-21T09:53:51;101986.53;;;10.02;89.74
65131;BME280;51709;54.912;8.316;2023-11-21T09:59:15;101997.66;;;9.88;89.69
65131;BME280;51709;54.912;8.316;2023-11-21T10:04:36;102009.66;;;9.75;89.84
65131;BME280;51709;54.912;8.316;2023-11-21T10:09:58;102018.28;;;9.58;90.04
65131;BME280;51709;54.912;8.316;2023-11-21T10:15:21;102006.47;;;9.47;90.29
65131;BME280;51709;54.912;8.316;2023-11-21T10:20:42;102022.34;;;9.41;90.43
65131;BME280;51709;54.912;8.316;2023-11-21T10:26:04;102022.00;;;9.45;90.57
65131;BME280;51709;54.912;8.316;2023-11-21T10:31:39;102022.09;;;9.66;89.89
65131;BME280;51709;54.912;8.316;2023-11-21T10:37:11;102023.22;;;9.86;89.68
65131;BME280;51709;54.912;8.316;2023-11-21T10:42:32;102043.06;;;9.97;89.66
65131;BME280;51709;54.912;8.316;2023-11-21T10:47:53;102049.63;;;9.84;89.72
65131;BME280;51709;54.912;8.316;2023-11-21T10:53:14;102045.56;;;9.67;90.21
65131;BME280;51709;54.912;8.316;2023-11-21T10:58:35;102041.63;;;9.71;90.23
65131;BME280;51709;54.912;8.316;2023-11-21T11:03:56;102045.16;;;10.27;89.31
65131;BME280;51709;54.912;8.316;2023-11-21T11:09:18;102044.31;;;10.58;88.73
65131;BME280;51709;54.912;8.316;2023-11-21T11:14:41;102050.44;;;10.71;88.13
65131;BME280;51709;54.912;8.316;2023-11-21T11:20:02;102065.09;;;10.48;88.79
65131;BME280;51709;54.912;8.316;2023-11-21T11:31:18;102070.13;;;10.10;89.33
65131;BME280;51709;54.912;8.316;2023-11-21T11:37:01;102059.13;;;10.11;89.08
65131;BME280;51709;54.912;8.316;2023-11-21T11:42:26;102073.28;;;10.04;89.06
65131;BME280;51709;54.912;8.316;2023-11-21T11:47:47;102081.97;;;10.09;88.99
65131;BME280;51709;54.912;8.316;2023-11-21T11:53:13;102084.88;;;10.06;89.18
65131;BME280;51709;54.912;8.316;2023-11-21T11:58:37;102087.16;;;10.12;89.32
65131;BME280;51709;54.912;8.316;2023-11-21T12:09:31;102102.19;;;9.83;89.82
65131;BME280;51709;54.912;8.316;2023-11-21T12:14:52;102095.88;;;9.93;89.76
65131;BME280;51709;54.912;8.316;2023-11-21T12:20:13;102100.22;;;9.96;89.64
65131;BME280;51709;54.912;8.316;2023-11-21T12:25:40;102108.97;;;9.99;89.73
65131;BME280;51709;54.912;8.316;2023-11-21T12:31:02;102112.56;;;10.00;89.93
65131;BME280;51709;54.912;8.316;2023-11-21T12:36:35;102128.84;;;10.00;89.57
65131;BME280;51709;54.912;8.316;2023-11-21T12:41:55;102128.22;;;9.96;89.59
65131;BME280;51709;54.912;8.316;2023-11-21T12:47:19;102140.56;;;9.78;89.71
65131;BME280;51709;54.912;8.316;2023-11-21T12:52:44;102141.38;;;9.57;90.02
65131;BME280;51709;54.912;8.316;2023-11-21T12:58:09;102145.16;;;9.43;90.41
65131;BME280;51709;54.912;8.316;2023-11-21T13:03:32;102159.09;;;9.38;90.40
65131;BME280;51709;54.912;8.316;2023-11-21T13:08:54;102158.75;;;9.19;90.87
65131;BME280;51709;54.912;8.316;2023-11-21T13:14:17;102166.31;;;9.03;91.15
65131;BME280;51709;54.912;8.316;2023-11-21T13:19:38;102165.38;;;9.04;91.33
65131;BME280;51709;54.912;8.316;2023-11-21T13:24:58;102172.09;;;8.99;91.32
65131;BME280;51709;54.912;8.316;2023-11-21T13:30:19;102177.84;;;8.94;91.43
65131;BME280;51709;54.912;8.316;2023-11-21T13:35:46;102183.22;;;8.83;91.51
65131;BME280;51709;54.912;8.316;2023-11-21T13:41:12;102194.28;;;8.80;91.50
65131;BME280;51709;54.912;8.316;2023-11-21T13:46:35;102199.31;;;8.74;91.48
65131;BME280;51709;54.912;8.316;2023-11-21T13:51:58;102214.94;;;8.70;91.80
65131;BME280;51709;54.912;8.316;2023-11-21T13:57:21;102228.16;;;8.62;92.10
65131;BME280;51709;54.912;8.316;2023-11-21T14:02:41;102225.31;;;8.64;91.96
65131;BME280;51709;54.912;8.316;2023-11-21T14:08:04;102228.16;;;8.62;92.06
65131;BME280;51709;54.912;8.316;2023-11-21T14:13:26;102232.19;;;8.57;91.84
65131;BME280;51709;54.912;8.316;2023-11-21T14:18:47;102229.06;;;8.50;92.25
65131;BME280;51709;54.912;8.316;2023-11-21T14:24:16;102251.78;;;8.48;92.35
65131;BME280;51709;54.912;8.316;2023-11-21T14:29:40;102259.09;;;8.47;92.40
65131;BME280;51709;54.912;8.316;2023-11-21T14:35:06;102277.94;;;8.49;92.16
65131;BME280;51709;54.912;8.316;2023-11-21T14:40:28;102274.78;;;8.42;92.04
65131;BME280;51709;54.912;8.316;2023-11-21T14:45:53;102285.28;;;8.47;92.17
65131;BME280;51709;54.912;8.316;2023-11-21T14:51:16;102298.19;;;8.43;92.22
65131;BME280;51709;54.912;8.316;2023-11-21T14:56:47;102305.44;;;8.42;92.21
65131;BME280;51709;54.912;8.316;2023-11-21T15:02:08;102301.78;;;8.43;92.25
65131;BME280;51709;54.912;8.316;2023-11-21T15:07:35;102317.03;;;8.44;92.33
65131;BME280;51709;54.912;8.316;2023-11-21T15:12:56;102313.34;;;8.45;92.36
65131;BME280;51709;54.912;8.316;2023-11-21T15:18:18;102328.50;;;8.48;92.31
65131;BME280;51709;54.912;8.316;2023-11-21T15:23:39;102331.22;;;8.48;92.15
65131;BME280;51709;54.912;8.316;2023-11-21T15:29:01;102333.94;;;8.48;92.23
65131;BME280;51709;54.912;8.316;2023-11-21T15:34:22;102336.09;;;8.43;92.07
65131;BME280;51709;54.912;8.316;2023-11-21T15:39:43;102336.97;;;8.43;92.08
65131;BME280;51709;54.912;8.316;2023-11-21T15:45:04;102354.28;;;8.41;92.11
65131;BME280;51709;54.912;8.316;2023-11-21T15:50:27;102359.94;;;8.38;92.24
65131;BME280;51709;54.912;8.316;2023-11-21T15:55:48;102367.06;;;8.39;91.96
65131;BME280;51709;54.912;8.316;2023-11-21T16:01:09;102368.13;;;8.36;91.76
65131;BME280;51709;54.912;8.316;2023-11-21T16:06:30;102384.63;;;8.33;92.06
65131;BME280;51709;54.912;8.316;2023-11-21T16:11:51;102385.72;;;8.31;92.22
65131;BME280;51709;54.912;8.316;2023-11-21T16:17:13;102412.03;;;8.29;92.23
65131;BME280;51709;54.912;8.316;2023-11-21T16:22:35;102411.44;;;8.24;92.27
65131;BME280;51709;54.912;8.316;2023-11-21T16:27:55;102428.97;;;8.18;92.14
65131;BME280;51709;54.912;8.316;2023-11-21T16:33:18;102439.53;;;8.09;92.61
65131;BME280;51709;54.912;8.316;2023-11-21T16:38:39;102448.84;;;8.05;92.38
65131;BME280;51709;54.912;8.316;2023-11-21T16:44:01;102456.41;;;8.00;92.39
65131;BME280;51709;54.912;8.316;2023-11-21T16:49:23;102475.56;;;7.97;92.28
65131;BME280;51709;54.912;8.316;2023-11-21T16:54:44;102484.84;;;7.93;92.42
65131;BME280;51709;54.912;8.316;2023-11-21T17:00:05;102495.66;;;7.93;92.29
65131;BME280;51709;54.912;8.316;2023-11-21T17:05:32;102509.19;;;7.93;92.13
65131;BME280;51709;54.912;8.316;2023-11-21T17:10:52;102523.50;;;7.95;92.20
65131;BME280;51709;54.912;8.316;2023-11-21T17:16:13;102525.22;;;7.96;92.14
65131;BME280;51709;54.912;8.316;2023-11-21T17:21:34;102528.69;;;7.98;92.05
65131;BME280;51709;54.912;8.316;2023-11-21T17:26:55;102529.56;;;7.98;92.14
65131;BME280;51709;54.912;8.316;2023-11-21T17:32:15;102534.31;;;7.95;92.03
65131;BME280;51709;54.912;8.316;2023-11-21T17:37:39;102547.56;;;7.85;92.44
65131;BME280;51709;54.912;8.316;2023-11-21T17:42:59;102553.97;;;7.84;92.09
65131;BME280;51709;54.912;8.316;2023-11-21T17:48:20;102569.31;;;7.84;92.02
65131;BME280;51709;54.912;8.316;2023-11-21T17:53:42;102579.94;;;7.87;91.87
65131;BME280;51709;54.912;8.316;2023-11-21T17:59:04;102586.44;;;7.84;92.22
65131;BME280;51709;54.912;8.316;2023-11-21T18:04:25;102592.69;;;7.85;91.88
65131;BME280;51709;54.912;8.316;2023-11-21T18:09:47;102587.28;;;7.85;91.96
65131;BME280;51709;54.912;8.316;2023-11-21T18:15:08;102597.06;;;7.87;92.12
65131;BME280;51709;54.912;8.316;2023-11-21T18:20:29;102589.03;;;7.86;92.11
65131;BME280;51709;54.912;8.316;2023-11-21T18:25:50;102594.44;;;7.86;91.88
65131;BME280;51709;54.912;8.316;2023-11-21T18:31:11;102603.72;;;7.82;92.00
65131;BME280;51709;54.912;8.316;2023-11-21T18:36:32;102611.06;;;7.80;92.11
65131;BME280;51709;54.912;8.316;2023-11-21T18:41:53;102602.66;;;7.70;92.25
65131;BME280;51709;54.912;8.316;2023-11-21T18:47:15;102608.56;;;7.63;92.19
65131;BME280;51709;54.912;8.316;2023-11-21T18:52:36;102608.94;;;7.57;92.44
65131;BME280;51709;54.912;8.316;2023-11-21T18:57:57;102622.06;;;7.49;92.19
65131;BME280;51709;54.912;8.316;2023-11-21T19:03:17;102626.31;;;7.38;92.46
65131;BME280;51709;54.912;8.316;2023-11-21T19:08:40;102626.28;;;7.24;92.18
65131;BME280;51709;54.912;8.316;2023-11-21T19:14:01;102629.69;;;7.12;92.30
65131;BME280;51709;54.912;8.316;2023-11-21T19:19:22;102643.97;;;7.00;92.50
65131;BME280;51709;54.912;8.316;2023-11-21T19:24:43;102659.78;;;6.92;92.81
65131;BME280;51709;54.912;8.316;2023-11-21T19:30:04;102661.84;;;6.87;92.93
65131;BME280;51709;54.912;8.316;2023-11-21T19:35:28;102665.88;;;6.80;92.89
65131;BME280;51709;54.912;8.316;2023-11-21T19:40:50;102671.03;;;6.69;92.79
65131;BME280;51709;54.912;8.316;2023-11-21T19:46:12;102691.34;;;6.61;93.04
65131;BME280;51709;54.912;8.316;2023-11-21T19:51:34;102691.16;;;6.48;93.05
65131;BME280;51709;54.912;8.316;2023-11-21T19:56:55;102692.56;;;6.40;93.30
65131;BME280;51709;54.912;8.316;2023-11-21T20:02:15;102692.19;;;6.30;93.28
65131;BME280;51709;54.912;8.316;2023-11-21T20:07:36;102698.09;;;6.21;93.14
65131;BME280;51709;54.912;8.316;2023-11-21T20:12:57;102692.41;;;6.10;93.22
65131;BME280;51709;54.912;8.316;2023-11-21T20:18:26;102695.63;;;6.01;93.35
65131;BME280;51709;54.912;8.316;2023-11-21T20:23:48;102702.41;;;5.92;93.18
65131;BME280;51709;54.912;8.316;2023-11-21T20:29:08;102702.81;;;5.85;93.45
65131;BME280;51709;54.912;8.316;2023-11-21T20:34:29;102716.75;;;5.76;93.36
65131;BME280;51709;54.912;8.316;2023-11-21T20:39:50;102734.22;;;5.69;93.23
65131;BME280;51709;54.912;8.316;2023-11-21T20:45:11;102751.66;;;5.62;93.37
65131;BME280;51709;54.912;8.316;2023-11-21T20:50:33;102770.78;;;5.57;93.45
65131;BME280;51709;54.912;8.316;2023-11-21T20:55:55;102770.06;;;5.54;93.59
65131;BME280;51709;54.912;8.316;2023-11-21T21:01:16;102775.75;;;5.48;93.63
65131;BME280;51709;54.912;8.316;2023-11-21T21:06:39;102777.19;;;5.38;93.43
65131;BME280;51709;54.912;8.316;2023-11-21T21:12:00;102781.78;;;5.36;93.39
65131;BME280;51709;54.912;8.316;2023-11-21T21:17:21;102773.00;;;5.32;93.60
65131;BME280;51709;54.912;8.316;2023-11-21T21:22:42;102767.69;;;5.30;93.77
65131;BME280;51709;54.912;8.316;2023-11-21T21:28:04;102763.38;;;5.26;93.84
65131;BME280;51709;54.912;8.316;2023-11-21T21:33:26;102768.28;;;5.18;93.70
65131;BME280;51709;54.912;8.316;2023-11-21T21:38:46;102752.28;;;5.15;93.50
65131;BME280;51709;54.912;8.316;2023-11-21T21:44:06;102776.69;;;5.12;93.68
65131;BME280;51709;54.912;8.316;2023-11-21T21:49:28;102788.38;;;5.11;93.72
65131;BME280;51709;54.912;8.316;2023-11-21T21:54:49;102783.16;;;5.08;93.62
65131;BME280;51709;54.912;8.316;2023-11-21T22:00:09;102777.94;;;5.05;93.74
65131;BME280;51709;54.912;8.316;2023-11-21T22:05:33;102785.34;;;5.00;93.73
65131;BME280;51709;54.912;8.316;2023-11-21T22:10:54;102796.44;;;4.94;93.87
65131;BME280;51709;54.912;8.316;2023-11-21T22:16:15;102807.34;;;4.91;93.56
65131;BME280;51709;54.912;8.316;2023-11-21T22:21:36;102820.31;;;4.83;93.61
65131;BME280;51709;54.912;8.316;2023-11-21T22:26:57;102815.38;;;4.74;93.98
65131;BME280;51709;54.912;8.316;2023-11-21T22:32:17;102822.72;;;4.71;93.80
65131;BME280;51709;54.912;8.316;2023-11-21T22:37:38;102825.75;;;4.63;93.71
65131;BME280;51709;54.912;8.316;2023-11-21T22:42:58;102804.00;;;4.49;93.79
65131;BME280;51709;54.912;8.316;2023-11-21T22:48:19;102821.22;;;4.45;94.01
65131;BME280;51709;54.912;8.316;2023-11-21T22:53:40;102831.19;;;4.43;94.03
65131;BME280;51709;54.912;8.316;2023-11-21T22:59:01;102830.59;;;4.37;93.97
65131;BME280;51709;54.912;8.316;2023-11-21T23:04:22;102827.31;;;4.30;93.79
65131;BME280;51709;54.912;8.316;2023-11-21T23:09:42;102830.13;;;4.27;93.82
65131;BME280;51709;54.912;8.316;2023-11-21T23:15:05;102837.47;;;4.23;93.92
65131;BME280;51709;54.912;8.316;2023-11-21T23:20:26;102853.69;;;4.22;93.88
65131;BME280;51709;54.912;8.316;2023-11-21T23:25:48;102844.66;;;4.23;93.93
65131;BME280;51709;54.912;8.316;2023-11-21T23:31:08;102849.03;;;4.25;93.98
65131;BME280;51709;54.912;8.316;2023-11-21T23:36:29;102834.72;;;4.25;93.84
65131;BME280;51709;54.912;8.316;2023-11-21T23:41:50;102840.09;;;4.25;93.70
65131;BME280;51709;54.912;8.316;2023-11-21T23:47:11;102853.53;;;4.25;93.86
65131;BME280;51709;54.912;8.316;2023-11-21T23:52:31;102876.53;;;4.32;94.17
65131;BME280;51709;54.912;8.316;2023-11-21T23:57:52;102856.47;;;4.39;94.08
